sensor_id;sensor_type;location;lat;lon;timestamp;pressure;altitude;pressure_sealevel;temperature;humidity
46724;BME280;32463;48.298;11.620;2023-07-13T00:02:15;96298.63;;;17.88;100.00
46724;BME280;32463;48.298;11.620;2023-07-13T00:04:42;96293.78;;;17.91;100.00
46724;BME280;32463;48.298;11.620;2023-07-13T00:07:08;96291.56;;;17.88;100.00
46724;BME280;32463;48.298;11.620;2023-07-13T00:09:35;96280.88;;;17.90;100.00
46724;BME280;32463;48.298;11.620;2023-07-13T00:12:01;96277.66;;;17.81;100.00
46724;BME280;32463;48.298;11.620;2023-07-13T00:14:29;96278.44;;;17.81;100.00
46724;BME280;32463;48.298;11.620;2023-07-13T00:16:55;96265.13;;;17.90;100.00
46724;BME280;32463;48.298;11.620;2023-07-13T00:19:22;96264.31;;;17.89;100.00
46724;BME280;32463;48.298;11.620;2023-07-13T00:21:48;96259.47;;;17.86;100.00
46724;BME280;32463;48.298;11.620;2023-07-13T00:24:18;96267.97;;;17.88;100.00
46724;BME280;32463;48.298;11.620;2023-07-13T00:26:48;96269.97;;;17.93;100.00
46724;BME280;32463;48.298;11.620;2023-07-13T00:29:15;96270.78;;;17.80;100.00
46724;BME280;32463;48.298;11.620;2023-07-13T00:31:41;96286.13;;;17.83;100.00
46724;BME280;32463;48.298;11.620;2023-07-13T00:34:09;96281.69;;;17.77;100.00
46724;BME280;32463;48.298;11.620;2023-07-13T00:36:35;96277.66;;;17.74;100.00
46724;BME280;32463;48.298;11.620;2023-07-13T00:39:02;96282.09;;;17.74;100.00
46724;BME280;32463;48.298;11.620;2023-07-13T00:41:30;96285.50;;;17.81;100.00
46724;BME280;32463;48.298;11.620;2023-07-13T00:43:57;96283.13;;;17.73;100.00
46724;BME280;32463;48.298;11.620;2023-07-13T00:46:28;96289.34;;;17.78;100.00
46724;BME280;32463;48.298;11.620;2023-07-13T00:48:59;96285.97;;;17.71;100.00
46724;BME280;32463;48.298;11.620;2023-07-13T00:51:31;96281.94;;;17.69;100.00
46724;BME280;32463;48.298;11.620;2023-07-13T00:54:00;96279.25;;;17.82;100.00
46724;BME280;32463;48.298;11.620;2023-07-13T00:56:29;96281.13;;;17.68;100.00
46724;BME280;32463;48.298;11.620;2023-07-13T00:58:59;96278.09;;;17.71;100.00
46724;BME280;32463;48.298;11.620;2023-07-13T01:01:26;96284.16;;;17.72;100.00
46724;BME280;32463;48.298;11.620;2023-07-13T01:03:53;96293.41;;;17.68;100.00
46724;BME280;32463;48.298;11.620;2023-07-13T01:06:19;96291.41;;;17.70;100.00
46724;BME280;32463;48.298;11.620;2023-07-13T01:08:46;96281.53;;;17.65;100.00
46724;BME280;32463;48.298;11.620;2023-07-13T01:11:18;96275.66;;;17.63;100.00
46724;BME280;32463;48.298;11.620;2023-07-13T01:13:45;96269.59;;;17.63;100.00
46724;BME280;32463;48.298;11.620;2023-07-13T01:16:22;96267.16;;;17.74;100.00
46724;BME280;32463;48.298;11.620;2023-07-13T01:18:50;96259.09;;;17.76;100.00
46724;BME280;32463;48.298;11.620;2023-07-13T01:21:16;96266.34;;;17.74;100.00
46724;BME280;32463;48.298;11.620;2023-07-13T01:23:44;96254.03;;;17.81;100.00
46724;BME280;32463;48.298;11.620;2023-07-13T01:26:11;96258.69;;;17.79;100.00
46724;BME280;32463;48.298;11.620;2023-07-13T01:28:37;96255.06;;;17.73;100.00
46724;BME280;32463;48.298;11.620;2023-07-13T01:31:04;96252.19;;;18.01;100.00
46724;BME280;32463;48.298;11.620;2023-07-13T01:33:31;96252.59;;;17.98;100.00
46724;BME280;32463;48.298;11.620;2023-07-13T01:35:58;96256.25;;;17.91;100.00
46724;BME280;32463;48.298;11.620;2023-07-13T01:38:24;96259.06;;;17.96;100.00
46724;BME280;32463;48.298;11.620;2023-07-13T01:40:52;96256.06;;;17.86;100.00
46724;BME280;32463;48.298;11.620;2023-07-13T01:43:19;96254.06;;;17.74;100.00
46724;BME280;32463;48.298;11.620;2023-07-13T01:45:45;96275.66;;;17.70;100.00
46724;BME280;32463;48.298;11.620;2023-07-13T01:48:12;96268.59;;;17.64;100.00
46724;BME280;32463;48.298;11.620;2023-07-13T01:50:39;96266.38;;;17.54;100.00
46724;BME280;32463;48.298;11.620;2023-07-13T01:53:06;96256.94;;;17.40;100.00
46724;BME280;32463;48.298;11.620;2023-07-13T01:55:34;96247.03;;;17.29;100.00
46724;BME280;32463;48.298;11.620;2023-07-13T01:58:01;96256.31;;;17.11;100.00
46724;BME280;32463;48.298;11.620;2023-07-13T02:00:27;96260.34;;;17.01;100.00
46724;BME280;32463;48.298;11.620;2023-07-13T02:02:55;96265.38;;;16.96;100.00
46724;BME280;32463;48.298;11.620;2023-07-13T02:05:22;96262.75;;;16.96;100.00
46724;BME280;32463;48.298;11.620;2023-07-13T02:07:49;96265.56;;;17.01;100.00
46724;BME280;32463;48.298;11.620;2023-07-13T02:10:15;96265.56;;;17.01;100.00
46724;BME280;32463;48.298;11.620;2023-07-13T02:12:42;96262.56;;;17.04;100.00
46724;BME280;32463;48.298;11.620;2023-07-13T02:15:09;96262.97;;;17.07;100.00
46724;BME280;32463;48.298;11.620;2023-07-13T02:17:36;96263.97;;;17.06;100.00
46724;BME280;32463;48.298;11.620;2023-07-13T02:20:03;96270.00;;;17.13;100.00
46724;BME280;32463;48.298;11.620;2023-07-13T02:22:30;96268.00;;;17.09;100.00
46724;BME280;32463;48.298;11.620;2023-07-13T02:24:57;96259.31;;;17.15;100.00
46724;BME280;32463;48.298;11.620;2023-07-13T02:27:23;96259.53;;;17.13;100.00
46724;BME280;32463;48.298;11.620;2023-07-13T02:29:50;96263.56;;;17.16;100.00
46724;BME280;32463;48.298;11.620;2023-07-13T02:32:17;96259.94;;;17.17;100.00
46724;BME280;32463;48.298;11.620;2023-07-13T02:34:44;96261.53;;;17.18;100.00
46724;BME280;32463;48.298;11.620;2023-07-13T02:37:11;96268.00;;;17.22;100.00
46724;BME280;32463;48.298;11.620;2023-07-13T02:39:37;96272.84;;;17.25;100.00
46724;BME280;32463;48.298;11.620;2023-07-13T02:42:04;96286.53;;;17.27;100.00
46724;BME280;32463;48.298;11.620;2023-07-13T02:44:30;96290.78;;;17.28;100.00
46724;BME280;32463;48.298;11.620;2023-07-13T02:46:57;96302.47;;;17.32;100.00
46724;BME280;32463;48.298;11.620;2023-07-13T02:49:23;96297.44;;;17.31;100.00
46724;BME280;32463;48.298;11.620;2023-07-13T02:51:51;96301.69;;;17.38;100.00
46724;BME280;32463;48.298;11.620;2023-07-13T02:54:17;96306.50;;;17.35;100.00
46724;BME280;32463;48.298;11.620;2023-07-13T02:56:44;96310.34;;;17.39;100.00
46724;BME280;32463;48.298;11.620;2023-07-13T02:59:10;96313.75;;;17.46;100.00
46724;BME280;32463;48.298;11.620;2023-07-13T03:01:37;96314.97;;;17.43;100.00
46724;BME280;32463;48.298;11.620;2023-07-13T03:04:04;96322.81;;;17.50;100.00
46724;BME280;32463;48.298;11.620;2023-07-13T03:06:34;96312.34;;;17.43;100.00
46724;BME280;32463;48.298;11.620;2023-07-13T03:09:01;96308.72;;;17.44;100.00
46724;BME280;32463;48.298;11.620;2023-07-13T03:11:29;96307.91;;;17.50;100.00
46724;BME280;32463;48.298;11.620;2023-07-13T03:13:57;96308.72;;;17.44;100.00
46724;BME280;32463;48.298;11.620;2023-07-13T03:16:23;96310.53;;;17.37;100.00
46724;BME280;32463;48.298;11.620;2023-07-13T03:18:50;96309.53;;;17.38;100.00
46724;BME280;32463;48.298;11.620;2023-07-13T03:21:16;96310.75;;;17.42;100.00
46724;BME280;32463;48.298;11.620;2023-07-13T03:23:43;96320.03;;;17.38;100.00
46724;BME280;32463;48.298;11.620;2023-07-13T03:26:12;96317.59;;;17.30;100.00
46724;BME280;32463;48.298;11.620;2023-07-13T03:28:41;96322.22;;;17.28;100.00
46724;BME280;32463;48.298;11.620;2023-07-13T03:31:16;96318.00;;;17.27;100.00
46724;BME280;32463;48.298;11.620;2023-07-13T03:33:44;96321.00;;;17.24;100.00
46724;BME280;32463;48.298;11.620;2023-07-13T03:36:19;96320.78;;;17.19;100.00
46724;BME280;32463;48.298;11.620;2023-07-13T03:38:57;96319.56;;;17.15;100.00
46724;BME280;32463;48.298;11.620;2023-07-13T03:41:25;96322.41;;;17.20;100.00
46724;BME280;32463;48.298;11.620;2023-07-13T03:43:52;96330.69;;;17.10;100.00
46724;BME280;32463;48.298;11.620;2023-07-13T03:46:19;96333.09;;;17.12;100.00
46724;BME280;32463;48.298;11.620;2023-07-13T03:48:46;96326.44;;;17.16;100.00
46724;BME280;32463;48.298;11.620;2023-07-13T03:51:15;96324.44;;;17.11;100.00
46724;BME280;32463;48.298;11.620;2023-07-13T03:53:44;96328.44;;;17.14;100.00
46724;BME280;32463;48.298;11.620;2023-07-13T03:56:11;96318.78;;;17.14;100.00
46724;BME280;32463;48.298;11.620;2023-07-13T03:58:40;96334.69;;;17.13;100.00
46724;BME280;32463;48.298;11.620;2023-07-13T04:01:09;96331.66;;;17.16;100.00
46724;BME280;32463;48.298;11.620;2023-07-13T04:03:37;96327.25;;;17.10;100.00
46724;BME280;32463;48.298;11.620;2023-07-13T04:06:06;96328.84;;;17.04;100.00
46724;BME280;32463;48.298;11.620;2023-07-13T04:08:35;96340.72;;;17.00;100.00
46724;BME280;32463;48.298;11.620;2023-07-13T04:11:03;96341.13;;;17.04;100.00
46724;BME280;32463;48.298;11.620;2023-07-13T04:13:30;96340.13;;;16.98;100.00
46724;BME280;32463;48.298;11.620;2023-07-13T04:15:57;96344.53;;;16.98;100.00
46724;BME280;32463;48.298;11.620;2023-07-13T04:18:24;96350.59;;;16.98;100.00
46724;BME280;32463;48.298;11.620;2023-07-13T04:20:50;96349.38;;;16.94;100.00
46724;BME280;32463;48.298;11.620;2023-07-13T04:23:17;96350.97;;;16.95;100.00
46724;BME280;32463;48.298;11.620;2023-07-13T04:25:45;96351.41;;;16.99;100.00
46724;BME280;32463;48.298;11.620;2023-07-13T04:28:12;96342.94;;;16.97;100.00
46724;BME280;32463;48.298;11.620;2023-07-13T04:30:38;96349.38;;;17.01;100.00
46724;BME280;32463;48.298;11.620;2023-07-13T04:33:05;96357.06;;;17.02;100.00
46724;BME280;32463;48.298;11.620;2023-07-13T04:35:31;96349.38;;;17.01;100.00
46724;BME280;32463;48.298;11.620;2023-07-13T04:37:57;96359.06;;;17.00;100.00
46724;BME280;32463;48.298;11.620;2023-07-13T04:40:27;96363.50;;;17.13;100.00
46724;BME280;32463;48.298;11.620;2023-07-13T04:42:54;96366.31;;;17.05;100.00
46724;BME280;32463;48.298;11.620;2023-07-13T04:45:21;96367.16;;;17.12;100.00
46724;BME280;32463;48.298;11.620;2023-07-13T04:47:49;96370.38;;;17.07;100.00
46724;BME280;32463;48.298;11.620;2023-07-13T04:50:16;96363.09;;;17.03;100.00
46724;BME280;32463;48.298;11.620;2023-07-13T04:52:46;96372.78;;;17.09;100.00
46724;BME280;32463;48.298;11.620;2023-07-13T04:55:12;96370.38;;;17.07;100.00
46724;BME280;32463;48.298;11.620;2023-07-13T04:57:39;96366.53;;;17.03;100.00
46724;BME280;32463;48.298;11.620;2023-07-13T05:00:07;96364.50;;;16.99;100.00
46724;BME280;32463;48.298;11.620;2023-07-13T05:02:34;96366.72;;;17.02;100.00
46724;BME280;32463;48.298;11.620;2023-07-13T05:05:01;96374.34;;;16.97;100.00
46724;BME280;32463;48.298;11.620;2023-07-13T05:07:28;96379.19;;;16.93;100.00
46724;BME280;32463;48.298;11.620;2023-07-13T05:09:55;96393.06;;;16.94;100.00
46724;BME280;32463;48.298;11.620;2023-07-13T05:12:22;96393.69;;;16.96;100.00
46724;BME280;32463;48.298;11.620;2023-07-13T05:14:48;96387.66;;;17.02;100.00
46724;BME280;32463;48.298;11.620;2023-07-13T05:17:15;96388.88;;;16.99;100.00
46724;BME280;32463;48.298;11.620;2023-07-13T05:19:41;96389.69;;;17.00;100.00
46724;BME280;32463;48.298;11.620;2023-07-13T05:22:08;96386.06;;;17.07;100.00
46724;BME280;32463;48.298;11.620;2023-07-13T05:24:35;96401.00;;;17.07;100.00
46724;BME280;32463;48.298;11.620;2023-07-13T05:27:01;96404.19;;;17.02;100.00
46724;BME280;32463;48.298;11.620;2023-07-13T05:29:28;96405.41;;;17.13;100.00
46724;BME280;32463;48.298;11.620;2023-07-13T05:31:54;96391.31;;;17.14;100.00
46724;BME280;32463;48.298;11.620;2023-07-13T05:34:21;96383.25;;;17.15;100.00
46724;BME280;32463;48.298;11.620;2023-07-13T05:36:48;96390.91;;;17.17;100.00
46724;BME280;32463;48.298;11.620;2023-07-13T05:39:16;96398.22;;;17.28;100.00
46724;BME280;32463;48.298;11.620;2023-07-13T05:41:42;96386.69;;;17.16;100.00
46724;BME280;32463;48.298;11.620;2023-07-13T05:44:09;96393.72;;;17.15;100.00
46724;BME280;32463;48.298;11.620;2023-07-13T05:46:35;96390.13;;;17.23;100.00
46724;BME280;32463;48.298;11.620;2023-07-13T05:49:02;96391.72;;;17.17;100.00
46724;BME280;32463;48.298;11.620;2023-07-13T05:51:29;96384.69;;;17.11;100.00
46724;BME280;32463;48.298;11.620;2023-07-13T05:53:55;96389.34;;;17.29;100.00
46724;BME280;32463;48.298;11.620;2023-07-13T05:56:22;96397.78;;;17.18;100.00
46724;BME280;32463;48.298;11.620;2023-07-13T05:58:49;96400.66;;;17.36;100.00
46724;BME280;32463;48.298;11.620;2023-07-13T06:01:15;96404.28;;;17.48;100.00
46724;BME280;32463;48.298;11.620;2023-07-13T06:03:42;96399.66;;;17.64;100.00
46724;BME280;32463;48.298;11.620;2023-07-13T06:06:10;96401.94;;;17.67;100.00
46724;BME280;32463;48.298;11.620;2023-07-13T06:08:36;96406.75;;;17.76;100.00
46724;BME280;32463;48.298;11.620;2023-07-13T06:11:06;96409.19;;;17.91;100.00
46724;BME280;32463;48.298;11.620;2023-07-13T06:13:33;96410.00;;;17.98;100.00
46724;BME280;32463;48.298;11.620;2023-07-13T06:16:01;96411.78;;;18.04;100.00
46724;BME280;32463;48.298;11.620;2023-07-13T06:18:30;96409.16;;;18.31;100.00
46724;BME280;32463;48.298;11.620;2023-07-13T06:20:56;96407.53;;;18.30;100.00
46724;BME280;32463;48.298;11.620;2023-07-13T06:23:23;96413.44;;;18.90;100.00
46724;BME280;32463;48.298;11.620;2023-07-13T06:25:50;96407.31;;;19.02;100.00
46724;BME280;32463;48.298;11.620;2023-07-13T06:28:16;96407.50;;;19.01;100.00
46724;BME280;32463;48.298;11.620;2023-07-13T06:30:43;96412.94;;;19.06;100.00
46724;BME280;32463;48.298;11.620;2023-07-13T06:33:09;96410.81;;;19.28;100.00
46724;BME280;32463;48.298;11.620;2023-07-13T06:35:36;96407.97;;;19.92;100.00
46724;BME280;32463;48.298;11.620;2023-07-13T06:38:02;96414.28;;;19.60;100.00
46724;BME280;32463;48.298;11.620;2023-07-13T06:40:29;96419.97;;;19.57;100.00
46724;BME280;32463;48.298;11.620;2023-07-13T06:42:57;96429.03;;;19.61;100.00
46724;BME280;32463;48.298;11.620;2023-07-13T06:45:23;96440.72;;;19.71;100.00
46724;BME280;32463;48.298;11.620;2023-07-13T06:47:49;96433.88;;;19.64;100.00
46724;BME280;32463;48.298;11.620;2023-07-13T06:50:16;96440.53;;;19.66;100.00
46724;BME280;32463;48.298;11.620;2023-07-13T06:52:42;96442.94;;;19.68;100.00
46724;BME280;32463;48.298;11.620;2023-07-13T06:55:09;96446.63;;;19.92;100.00
46724;BME280;32463;48.298;11.620;2023-07-13T06:57:35;96444.56;;;20.18;100.00
46724;BME280;32463;48.298;11.620;2023-07-13T07:00:02;96447.53;;;20.29;100.00
46724;BME280;32463;48.298;11.620;2023-07-13T07:02:28;96447.88;;;20.39;100.00
46724;BME280;32463;48.298;11.620;2023-07-13T07:04:54;96461.69;;;20.09;100.00
46724;BME280;32463;48.298;11.620;2023-07-13T07:07:24;96460.31;;;20.25;100.00
46724;BME280;32463;48.298;11.620;2023-07-13T07:09:50;96463.22;;;19.92;100.00
46724;BME280;32463;48.298;11.620;2023-07-13T07:12:17;96456.69;;;19.70;100.00
46724;BME280;32463;48.298;11.620;2023-07-13T07:14:43;96463.56;;;19.71;100.00
46724;BME280;32463;48.298;11.620;2023-07-13T07:17:09;96462.19;;;19.93;100.00
46724;BME280;32463;48.298;11.620;2023-07-13T07:19:36;96461.25;;;20.12;100.00
46724;BME280;32463;48.298;11.620;2023-07-13T07:22:02;96455.59;;;20.09;100.00
46724;BME280;32463;48.298;11.620;2023-07-13T07:24:29;96460.00;;;19.90;100.00
46724;BME280;32463;48.298;11.620;2023-07-13T07:26:55;96455.28;;;19.99;100.00
46724;BME280;32463;48.298;11.620;2023-07-13T07:29:22;96459.25;;;19.83;100.00
46724;BME280;32463;48.298;11.620;2023-07-13T07:31:51;96459.88;;;19.78;100.00
46724;BME280;32463;48.298;11.620;2023-07-13T07:34:18;96471.88;;;19.99;100.00
46724;BME280;32463;48.298;11.620;2023-07-13T07:36:44;96468.00;;;20.27;100.00
46724;BME280;32463;48.298;11.620;2023-07-13T07:39:11;96467.13;;;20.39;100.00
46724;BME280;32463;48.298;11.620;2023-07-13T07:41:37;96468.53;;;20.42;100.00
46724;BME280;32463;48.298;11.620;2023-07-13T07:44:04;96469.75;;;20.14;100.00
46724;BME280;32463;48.298;11.620;2023-07-13T07:46:32;96478.47;;;20.40;100.00
46724;BME280;32463;48.298;11.620;2023-07-13T07:48:59;96472.28;;;19.96;100.00
46724;BME280;32463;48.298;11.620;2023-07-13T07:51:25;96477.09;;;20.06;100.00
46724;BME280;32463;48.298;11.620;2023-07-13T07:53:51;96482.91;;;20.14;100.00
46724;BME280;32463;48.298;11.620;2023-07-13T07:56:18;96488.19;;;20.39;100.00
46724;BME280;32463;48.298;11.620;2023-07-13T07:58:44;96491.63;;;20.40;100.00
46724;BME280;32463;48.298;11.620;2023-07-13T08:01:11;96483.53;;;20.10;100.00
46724;BME280;32463;48.298;11.620;2023-07-13T08:03:37;96486.19;;;19.78;100.00
46724;BME280;32463;48.298;11.620;2023-07-13T08:06:04;96495.91;;;19.78;100.00
46724;BME280;32463;48.298;11.620;2023-07-13T08:08:30;96496.00;;;19.58;100.00
46724;BME280;32463;48.298;11.620;2023-07-13T08:10:57;96504.69;;;19.65;100.00
46724;BME280;32463;48.298;11.620;2023-07-13T08:13:23;96505.00;;;19.37;100.00
46724;BME280;32463;48.298;11.620;2023-07-13T08:15:51;96514.28;;;19.53;100.00
46724;BME280;32463;48.298;11.620;2023-07-13T08:18:17;96513.56;;;19.20;100.00
46724;BME280;32463;48.298;11.620;2023-07-13T08:20:44;96508.06;;;19.79;100.00
46724;BME280;32463;48.298;11.620;2023-07-13T08:23:10;96517.31;;;19.43;100.00
46724;BME280;32463;48.298;11.620;2023-07-13T08:25:37;96519.75;;;19.38;100.00
46724;BME280;32463;48.298;11.620;2023-07-13T08:28:04;96518.78;;;19.26;100.00
46724;BME280;32463;48.298;11.620;2023-07-13T08:30:30;96524.09;;;19.13;100.00
46724;BME280;32463;48.298;11.620;2023-07-13T08:32:57;96522.50;;;19.12;100.00
46724;BME280;32463;48.298;11.620;2023-07-13T08:35:23;96528.16;;;19.09;100.00
46724;BME280;32463;48.298;11.620;2023-07-13T08:37:51;96527.75;;;19.12;100.00
46724;BME280;32463;48.298;11.620;2023-07-13T08:40:19;96538.63;;;19.22;100.00
46724;BME280;32463;48.298;11.620;2023-07-13T08:42:54;96536.00;;;19.22;100.00
46724;BME280;32463;48.298;11.620;2023-07-13T08:45:34;96532.91;;;19.38;100.00
46724;BME280;32463;48.298;11.620;2023-07-13T08:48:09;96531.94;;;19.77;100.00
46724;BME280;32463;48.298;11.620;2023-07-13T08:50:51;96531.44;;;20.18;100.00
46724;BME280;32463;48.298;11.620;2023-07-13T08:53:18;96538.22;;;20.39;100.00
46724;BME280;32463;48.298;11.620;2023-07-13T08:55:45;96538.44;;;20.31;100.00
46724;BME280;32463;48.298;11.620;2023-07-13T08:58:14;96539.03;;;20.08;100.00
46724;BME280;32463;48.298;11.620;2023-07-13T09:00:54;96546.81;;;19.90;100.00
46724;BME280;32463;48.298;11.620;2023-07-13T09:03:30;96536.69;;;19.94;100.00
46724;BME280;32463;48.298;11.620;2023-07-13T09:05:58;96544.41;;;19.89;100.00
46724;BME280;32463;48.298;11.620;2023-07-13T09:11:28;96544.69;;;19.74;100.00
46724;BME280;32463;48.298;11.620;2023-07-13T09:17:01;96542.34;;;19.97;100.00
46724;BME280;32463;48.298;11.620;2023-07-13T09:19:31;96533.03;;;19.95;100.00
46724;BME280;32463;48.298;11.620;2023-07-13T09:22:01;96541.31;;;19.98;100.00
46724;BME280;32463;48.298;11.620;2023-07-13T09:27:23;96537.00;;;20.10;100.00
46724;BME280;32463;48.298;11.620;2023-07-13T09:30:01;96536.69;;;20.50;100.00
46724;BME280;32463;48.298;11.620;2023-07-13T09:32:28;96536.22;;;21.03;100.00
46724;BME280;32463;48.298;11.620;2023-07-13T09:34:55;96530.19;;;20.96;96.63
46724;BME280;32463;48.298;11.620;2023-07-13T09:37:31;96535.44;;;21.39;96.26
46724;BME280;32463;48.298;11.620;2023-07-13T09:39:59;96534.97;;;21.72;93.79
46724;BME280;32463;48.298;11.620;2023-07-13T09:42:30;96540.28;;;22.02;85.65
46724;BME280;32463;48.298;11.620;2023-07-13T09:45:00;96533.59;;;22.29;83.57
46724;BME280;32463;48.298;11.620;2023-07-13T09:47:30;96535.34;;;22.05;80.00
46724;BME280;32463;48.298;11.620;2023-07-13T09:50:03;96534.63;;;22.40;79.28
46724;BME280;32463;48.298;11.620;2023-07-13T09:52:42;96537.06;;;22.53;76.39
46724;BME280;32463;48.298;11.620;2023-07-13T09:57:50;96533.28;;;23.07;72.43
46724;BME280;32463;48.298;11.620;2023-07-13T10:00:27;96533.34;;;23.24;72.06
46724;BME280;32463;48.298;11.620;2023-07-13T10:03:03;96538.81;;;23.86;63.17
46724;BME280;32463;48.298;11.620;2023-07-13T10:05:40;96540.69;;;24.02;61.27
46724;BME280;32463;48.298;11.620;2023-07-13T10:08:19;96539.66;;;24.20;61.41
46724;BME280;32463;48.298;11.620;2023-07-13T10:10:53;96527.75;;;24.34;58.98
46724;BME280;32463;48.298;11.620;2023-07-13T10:13:33;96527.63;;;25.35;56.48
46724;BME280;32463;48.298;11.620;2023-07-13T10:16:02;96535.78;;;24.56;59.08
46724;BME280;32463;48.298;11.620;2023-07-13T10:18:44;96536.84;;;24.72;59.48
46724;BME280;32463;48.298;11.620;2023-07-13T10:21:20;96541.91;;;24.73;59.05
46724;BME280;32463;48.298;11.620;2023-07-13T10:23:55;96537.00;;;24.65;57.92
46724;BME280;32463;48.298;11.620;2023-07-13T10:26:29;96536.19;;;25.20;56.38
46724;BME280;32463;48.298;11.620;2023-07-13T10:29:01;96548.28;;;24.77;56.46
46724;BME280;32463;48.298;11.620;2023-07-13T10:31:29;96548.16;;;24.67;56.99
46724;BME280;32463;48.298;11.620;2023-07-13T10:33:57;96550.44;;;23.85;59.50
46724;BME280;32463;48.298;11.620;2023-07-13T10:36:31;96552.13;;;24.19;59.22
46724;BME280;32463;48.298;11.620;2023-07-13T10:39:02;96545.31;;;23.78;59.27
46724;BME280;32463;48.298;11.620;2023-07-13T10:41:33;96544.00;;;24.09;59.88
46724;BME280;32463;48.298;11.620;2023-07-13T10:44:01;96539.09;;;24.01;59.00
46724;BME280;32463;48.298;11.620;2023-07-13T10:46:30;96530.69;;;23.36;60.81
46724;BME280;32463;48.298;11.620;2023-07-13T10:49:03;96535.34;;;23.85;59.41
46724;BME280;32463;48.298;11.620;2023-07-13T10:51:31;96541.72;;;24.30;56.56
46724;BME280;32463;48.298;11.620;2023-07-13T10:56:40;96532.63;;;25.31;52.79
46724;BME280;32463;48.298;11.620;2023-07-13T10:59:39;96537.66;;;25.98;52.68
46724;BME280;32463;48.298;11.620;2023-07-13T11:02:13;96544.41;;;25.40;52.53
46724;BME280;32463;48.298;11.620;2023-07-13T11:04:47;96537.53;;;25.44;50.99
46724;BME280;32463;48.298;11.620;2023-07-13T11:07:23;96552.97;;;25.64;51.42
46724;BME280;32463;48.298;11.620;2023-07-13T11:09:58;96538.41;;;25.28;52.11
46724;BME280;32463;48.298;11.620;2023-07-13T11:23:07;96549.16;;;26.09;48.34
46724;BME280;32463;48.298;11.620;2023-07-13T11:25:35;96552.28;;;25.13;49.40
46724;BME280;32463;48.298;11.620;2023-07-13T11:28:17;96546.56;;;25.43;49.88
46724;BME280;32463;48.298;11.620;2023-07-13T11:36:07;96534.81;;;25.83;46.45
46724;BME280;32463;48.298;11.620;2023-07-13T11:38:40;96534.78;;;25.56;47.32
46724;BME280;32463;48.298;11.620;2023-07-13T11:41:50;96543.00;;;24.77;48.16
46724;BME280;32463;48.298;11.620;2023-07-13T11:46:34;96533.50;;;24.81;48.32
46724;BME280;32463;48.298;11.620;2023-07-13T11:49:00;96523.03;;;25.74;46.26
46724;BME280;32463;48.298;11.620;2023-07-13T11:53:58;96503.47;;;27.28;46.37
46724;BME280;32463;48.298;11.620;2023-07-13T11:56:26;96502.09;;;28.18;44.25
46724;BME280;32463;48.298;11.620;2023-07-13T11:58:56;96492.88;;;29.41;40.84
46724;BME280;32463;48.298;11.620;2023-07-13T12:01:28;96510.66;;;28.10;41.25
46724;BME280;32463;48.298;11.620;2023-07-13T12:03:59;96507.59;;;26.99;42.30
46724;BME280;32463;48.298;11.620;2023-07-13T12:06:29;96508.72;;;27.08;42.26
46724;BME280;32463;48.298;11.620;2023-07-13T12:08:57;96505.28;;;27.80;40.79
46724;BME280;32463;48.298;11.620;2023-07-13T12:11:24;96502.38;;;28.83;39.35
46724;BME280;32463;48.298;11.620;2023-07-13T12:13:51;96499.81;;;29.42;38.36
46724;BME280;32463;48.298;11.620;2023-07-13T12:16:30;96500.50;;;31.71;36.22
46724;BME280;32463;48.298;11.620;2023-07-13T12:18:59;96492.94;;;32.10;33.07
46724;BME280;32463;48.298;11.620;2023-07-13T12:21:31;96497.03;;;32.27;32.58
46724;BME280;32463;48.298;11.620;2023-07-13T12:23:58;96481.09;;;30.89;33.15
46724;BME280;32463;48.298;11.620;2023-07-13T12:26:28;96480.88;;;30.85;33.74
46724;BME280;32463;48.298;11.620;2023-07-13T12:28:56;96467.03;;;30.49;34.05
46724;BME280;32463;48.298;11.620;2023-07-13T12:31:26;96466.56;;;30.08;33.94
46724;BME280;32463;48.298;11.620;2023-07-13T12:33:58;96476.31;;;29.34;35.63
46724;BME280;32463;48.298;11.620;2023-07-13T12:36:25;96477.47;;;27.45;38.89
46724;BME280;32463;48.298;11.620;2023-07-13T12:38:52;96474.91;;;27.76;38.34
46724;BME280;32463;48.298;11.620;2023-07-13T12:41:19;96470.94;;;28.29;37.15
46724;BME280;32463;48.298;11.620;2023-07-13T12:43:46;96479.19;;;28.17;37.27
46724;BME280;32463;48.298;11.620;2023-07-13T12:46:19;96477.28;;;27.82;39.71
46724;BME280;32463;48.298;11.620;2023-07-13T12:48:52;96477.31;;;27.93;38.26
46724;BME280;32463;48.298;11.620;2023-07-13T12:51:22;96464.06;;;30.22;35.98
46724;BME280;32463;48.298;11.620;2023-07-13T12:53:57;96462.00;;;30.08;34.91
46724;BME280;32463;48.298;11.620;2023-07-13T12:56:26;96458.00;;;30.93;33.20
46724;BME280;32463;48.298;11.620;2023-07-13T12:59:01;96468.09;;;31.01;32.64
46724;BME280;32463;48.298;11.620;2023-07-13T13:01:29;96459.47;;;29.88;34.30
46724;BME280;32463;48.298;11.620;2023-07-13T13:04:01;96462.47;;;29.27;36.28
46724;BME280;32463;48.298;11.620;2023-07-13T13:06:29;96465.84;;;28.63;36.51
46724;BME280;32463;48.298;11.620;2023-07-13T13:08:58;96464.72;;;28.79;36.32
46724;BME280;32463;48.298;11.620;2023-07-13T13:11:27;96448.28;;;28.32;37.23
46724;BME280;32463;48.298;11.620;2023-07-13T13:13:54;96457.34;;;28.00;37.45
46724;BME280;32463;48.298;11.620;2023-07-13T13:21:37;96452.94;;;30.04;34.71
46724;BME280;32463;48.298;11.620;2023-07-13T13:24:11;96444.72;;;30.30;34.59
46724;BME280;32463;48.298;11.620;2023-07-13T13:26:38;96444.63;;;30.40;34.12
46724;BME280;32463;48.298;11.620;2023-07-13T13:29:14;96442.28;;;31.10;32.86
46724;BME280;32463;48.298;11.620;2023-07-13T13:31:41;96447.16;;;31.88;32.21